createdAt,value
2023-05-12T00:00:44.111Z,1635.00
2023-05-12T00:01:44.129Z,1634.00
2023-05-12T00:02:44.283Z,1637.00
2023-05-12T00:03:44.490Z,1633.00
2023-05-12T00:04:44.148Z,1629.00
2023-05-12T00:05:44.143Z,1646.00
2023-05-12T00:06:44.142Z,1640.00
2023-05-12T00:07:44.133Z,1670.00
2023-05-12T00:08:44.133Z,1646.00
2023-05-12T00:09:44.148Z,1640.00
2023-05-12T00:10:44.169Z,1623.00
2023-05-12T00:11:44.149Z,1640.00
2023-05-12T00:12:44.166Z,1632.00
2023-05-12T00:13:44.235Z,1653.00
2023-05-12T00:14:44.189Z,1659.00
2023-05-12T00:15:44.222Z,1644.00
2023-05-12T00:16:44.263Z,1658.00
2023-05-12T00:17:44.211Z,1625.00
2023-05-12T00:18:44.256Z,1619.00
2023-05-12T00:19:44.209Z,1632.00
2023-05-12T00:20:44.226Z,1625.00
2023-05-12T00:21:44.251Z,1627.00
2023-05-12T00:22:44.279Z,1633.00
2023-05-12T00:23:44.260Z,1616.00
2023-05-12T00:24:44.280Z,1609.00
2023-05-12T00:25:44.301Z,1634.00
2023-05-12T00:26:44.297Z,1623.00
2023-05-12T00:27:44.315Z,1636.00
2023-05-12T00:28:44.338Z,1614.00
2023-05-12T00:29:44.334Z,1599.00
2023-05-12T00:30:44.346Z,1610.00
2023-05-12T00:31:44.421Z,1604.00
2023-05-12T00:32:44.451Z,1591.00
2023-05-12T00:33:44.373Z,1594.00
2023-05-12T00:34:44.384Z,1610.00
2023-05-12T00:35:44.396Z,1600.00
2023-05-12T00:36:44.404Z,1604.00
2023-05-12T00:37:44.440Z,1611.00
2023-05-12T00:38:44.419Z,1618.00
2023-05-12T00:39:44.447Z,1610.00
2023-05-12T00:40:44.459Z,1616.00
2023-05-12T00:41:44.460Z,1617.00
2023-05-12T00:42:44.483Z,1628.00
2023-05-12T00:43:44.470Z,1631.00
2023-05-12T00:44:44.489Z,1619.00
2023-05-12T00:45:44.569Z,1627.00
2023-05-12T00:46:44.506Z,1636.00
2023-05-12T00:47:44.533Z,1621.00
2023-05-12T00:48:44.541Z,1627.00
2023-05-12T00:49:44.544Z,1635.00
2023-05-12T00:50:44.551Z,1635.00
2023-05-12T00:51:44.569Z,1625.00
2023-05-12T00:52:44.576Z,1632.00
2023-05-12T00:53:50.037Z,1633.00
2023-05-12T00:54:45.587Z,1634.00
2023-05-12T00:55:44.566Z,1621.00
2023-05-12T00:56:44.588Z,1631.00
2023-05-12T00:57:44.599Z,1636.00
2023-05-12T00:58:44.540Z,1643.00
2023-05-12T00:59:44.538Z,1636.00
2023-05-12T01:00:44.529Z,1632.00
2023-05-12T01:01:44.547Z,1619.00
2023-05-12T01:02:44.584Z,1626.00
2023-05-12T01:03:44.500Z,1629.00
2023-05-12T01:04:44.498Z,1632.00
2023-05-12T01:05:44.485Z,1642.00
2023-05-12T01:06:44.472Z,1639.00
2023-05-12T01:07:44.471Z,1637.00
2023-05-12T01:08:44.469Z,1638.00
2023-05-12T01:09:44.474Z,1628.00
2023-05-12T01:10:44.473Z,1629.00
2023-05-12T01:11:44.491Z,1623.00
2023-05-12T01:12:44.464Z,1612.00
2023-05-12T01:13:44.428Z,1620.00
2023-05-12T01:14:44.434Z,1620.00
2023-05-12T01:15:44.430Z,1648.00
2023-05-12T01:16:44.456Z,1622.00
2023-05-12T01:17:44.560Z,1617.00
2023-05-12T01:18:44.447Z,1622.00
2023-05-12T01:19:44.393Z,1632.00
2023-05-12T01:20:44.379Z,1627.00
2023-05-12T01:21:44.437Z,1622.00
2023-05-12T01:22:44.372Z,1625.00
2023-05-12T01:23:44.362Z,1620.00
2023-05-12T01:24:44.366Z,1610.00
2023-05-12T01:25:44.352Z,1606.00
2023-05-12T01:26:44.354Z,1596.00
2023-05-12T01:27:44.337Z,1611.00
2023-05-12T01:28:44.342Z,1626.00
2023-05-12T01:29:44.314Z,1617.00
2023-05-12T01:30:44.356Z,1596.00
2023-05-12T01:31:44.393Z,1614.00
2023-05-12T01:32:44.367Z,1628.00
2023-05-12T01:33:44.350Z,1611.00
2023-05-12T01:34:44.405Z,1620.00
2023-05-12T01:35:44.424Z,1612.00
2023-05-12T01:36:44.397Z,1613.00
2023-05-12T01:37:44.390Z,1615.00
2023-05-12T01:38:44.402Z,1604.00
2023-05-12T01:39:44.395Z,1632.00
2023-05-12T01:40:44.416Z,1638.00
2023-05-12T01:41:44.417Z,1640.00
2023-05-12T01:42:44.422Z,1641.00
2023-05-12T01:43:44.442Z,1629.00
2023-05-12T01:44:44.430Z,1615.00
2023-05-12T01:45:44.452Z,1625.00
2023-05-12T01:46:44.468Z,1616.00
2023-05-12T01:47:44.477Z,1647.00
2023-05-12T01:48:44.491Z,1628.00
2023-05-12T01:49:44.485Z,1629.00
2023-05-12T01:50:44.497Z,1626.00
2023-05-12T01:51:44.515Z,1637.00
2023-05-12T01:52:44.527Z,1619.00
2023-05-12T01:53:44.539Z,1637.00
2023-05-12T01:54:44.535Z,1639.00
2023-05-12T01:55:44.546Z,1633.00
2023-05-12T01:56:44.557Z,1635.00
2023-05-12T01:57:44.580Z,1628.00
2023-05-12T01:58:44.617Z,1622.00
2023-05-12T01:59:44.570Z,1617.00
2023-05-12T02:00:44.580Z,1638.00
2023-05-12T02:01:44.684Z,1633.00
2023-05-12T02:02:44.652Z,1632.00
2023-05-12T02:03:44.672Z,1631.00
2023-05-12T02:04:44.639Z,1621.00
2023-05-12T02:05:44.645Z,1634.00
2023-05-12T02:06:44.664Z,1628.00
2023-05-12T02:07:44.665Z,1632.00
2023-05-12T02:08:44.704Z,1628.00
2023-05-12T02:09:44.700Z,1632.00
2023-05-12T02:10:44.721Z,1629.00
2023-05-12T02:11:44.709Z,1637.00
2023-05-12T02:12:44.733Z,1621.00
2023-05-12T02:13:44.737Z,1605.00
2023-05-12T02:14:44.747Z,1598.00
2023-05-12T02:15:44.772Z,1588.00
2023-05-12T02:16:44.792Z,1582.00
2023-05-12T02:17:44.844Z,1560.00
2023-05-12T02:18:44.828Z,1563.00
2023-05-12T02:19:44.806Z,1556.00
2023-05-12T02:20:44.828Z,1541.00
2023-05-12T02:21:44.864Z,1529.00
2023-05-12T02:22:44.865Z,1536.00
2023-05-12T02:23:44.869Z,1535.00
2023-05-12T02:24:44.856Z,1541.00
2023-05-12T02:25:44.877Z,1530.00
2023-05-12T02:26:44.907Z,1530.00
2023-05-12T02:27:44.921Z,1509.00
2023-05-12T02:28:44.933Z,1499.00
2023-05-12T02:29:44.929Z,1489.00
2023-05-12T02:30:44.951Z,1503.00
2023-05-12T02:31:44.992Z,1476.00
2023-05-12T02:32:45.003Z,1458.00
2023-05-12T02:33:44.982Z,1473.00
2023-05-12T02:34:44.979Z,1446.00
2023-05-12T02:35:44.990Z,1463.00
2023-05-12T02:36:45.024Z,1448.00
2023-05-12T02:37:45.009Z,1432.00
2023-05-12T02:38:45.046Z,1449.00
2023-05-12T02:39:45.052Z,1466.00
2023-05-12T02:40:45.058Z,1430.00
2023-05-12T02:41:45.094Z,1421.00
2023-05-12T02:42:45.098Z,1430.00
2023-05-12T02:43:45.119Z,1412.00
2023-05-12T02:44:45.127Z,1390.00
2023-05-12T02:45:45.200Z,1402.00
2023-05-12T02:46:45.137Z,1407.00
2023-05-12T02:47:45.238Z,1378.00
2023-05-12T02:48:45.165Z,1393.00
2023-05-12T02:49:45.176Z,1381.00
2023-05-12T02:50:45.183Z,1365.00
2023-05-12T02:51:45.195Z,1365.00
2023-05-12T02:52:45.241Z,1360.00
2023-05-12T02:53:45.246Z,1355.00
2023-05-12T02:54:45.255Z,1354.00
2023-05-12T02:55:45.271Z,1334.00
2023-05-12T02:56:45.276Z,1348.00
2023-05-12T02:57:45.298Z,1331.00
2023-05-12T02:58:45.446Z,1329.00
2023-05-12T02:59:45.332Z,1329.00
2023-05-12T03:00:45.409Z,1307.00
2023-05-12T03:01:45.403Z,1310.00
2023-05-12T03:02:45.401Z,1311.00
2023-05-12T03:03:45.633Z,1280.00
2023-05-12T03:04:45.434Z,1284.00
2023-05-12T03:05:45.424Z,1291.00
2023-05-12T03:06:45.440Z,1284.00
2023-05-12T03:07:45.444Z,1294.00
2023-05-12T03:08:45.464Z,1262.00
2023-05-12T03:09:45.486Z,1260.00
2023-05-12T03:10:45.487Z,1282.00
2023-05-12T03:11:45.524Z,1269.00
2023-05-12T03:12:45.545Z,1259.00
2023-05-12T03:13:45.553Z,1256.00
2023-05-12T03:14:45.561Z,1249.00
2023-05-12T03:15:45.556Z,1261.00
2023-05-12T03:16:45.632Z,1251.00
2023-05-12T03:17:45.624Z,1256.00
2023-05-12T03:18:45.643Z,1255.00
2023-05-12T03:19:45.619Z,1251.00
2023-05-12T03:20:45.641Z,1264.00
2023-05-12T03:21:45.647Z,1253.00
2023-05-12T03:22:45.661Z,1249.00
2023-05-12T03:23:45.674Z,1243.00
2023-05-12T03:24:45.693Z,1263.00
2023-05-12T03:25:45.720Z,1249.00
2023-05-12T03:26:45.752Z,1241.00
2023-05-12T03:27:45.767Z,1230.00
2023-05-12T03:28:45.793Z,1237.00
2023-05-12T03:29:45.804Z,1237.00
2023-05-12T03:30:45.871Z,1223.00
2023-05-12T03:31:45.876Z,1236.00
2023-05-12T03:32:45.893Z,1239.00
2023-05-12T03:33:45.896Z,1208.00
2023-05-12T03:34:45.926Z,1229.00
2023-05-12T03:35:45.957Z,1204.00
2023-05-12T03:36:45.970Z,1217.00
2023-05-12T03:37:45.984Z,1206.00
2023-05-12T03:38:45.975Z,1215.00
2023-05-12T03:39:46.001Z,1219.00
2023-05-12T03:40:46.026Z,1216.00
2023-05-12T03:41:46.037Z,1220.00
2023-05-12T03:42:46.071Z,1189.00
2023-05-12T03:43:46.061Z,1204.00
2023-05-12T03:44:46.094Z,1221.00
2023-05-12T03:45:46.101Z,1217.00
2023-05-12T03:46:46.167Z,1219.00
2023-05-12T03:47:46.231Z,1217.00
2023-05-12T03:48:46.146Z,1209.00
2023-05-12T03:49:46.148Z,1216.00
2023-05-12T03:50:46.157Z,1206.00
2023-05-12T03:51:46.165Z,1222.00
2023-05-12T03:52:46.189Z,1206.00
2023-05-12T03:53:46.280Z,1227.00
2023-05-12T03:54:46.234Z,1231.00
2023-05-12T03:55:46.231Z,1226.00
2023-05-12T03:56:46.264Z,1221.00
2023-05-12T03:57:46.280Z,1203.00
2023-05-12T03:58:46.278Z,1215.00
2023-05-12T03:59:46.291Z,1209.00
2023-05-12T04:00:46.306Z,1216.00
2023-05-12T04:01:46.401Z,1213.00
2023-05-12T04:02:46.494Z,1215.00
2023-05-12T04:03:46.454Z,1225.00
2023-05-12T04:04:46.370Z,1223.00
2023-05-12T04:05:46.408Z,1219.00
2023-05-12T04:06:46.439Z,1213.00
2023-05-12T04:07:46.432Z,1218.00
2023-05-12T04:08:46.457Z,1215.00
2023-05-12T04:09:46.453Z,1199.00
2023-05-12T04:10:46.497Z,1211.00
2023-05-12T04:11:46.517Z,1228.00
2023-05-12T04:12:46.523Z,1214.00
2023-05-12T04:13:46.554Z,1228.00
2023-05-12T04:14:46.544Z,1225.00
2023-05-12T04:15:46.576Z,1215.00
2023-05-12T04:16:46.637Z,1226.00
2023-05-12T04:17:46.642Z,1219.00
2023-05-12T04:18:46.709Z,1233.00
2023-05-12T04:19:46.651Z,1230.00
2023-05-12T04:20:46.655Z,1238.00
2023-05-12T04:21:46.720Z,1220.00
2023-05-12T04:22:46.691Z,1237.00
2023-05-12T04:23:46.742Z,1235.00
2023-05-12T04:24:46.715Z,1227.00
2023-05-12T04:25:46.713Z,1235.00
2023-05-12T04:26:46.742Z,1262.00
2023-05-12T04:27:46.749Z,1257.00
2023-05-12T04:28:46.749Z,1255.00
2023-05-12T04:29:46.826Z,1263.00
2023-05-12T04:30:46.788Z,1272.00
2023-05-12T04:31:46.869Z,1271.00
2023-05-12T04:32:46.938Z,1266.00
2023-05-12T04:33:48.335Z,1279.00
2023-05-12T04:34:46.939Z,1281.00
2023-05-12T04:35:46.878Z,1294.00
2023-05-12T04:36:46.893Z,1286.00
2023-05-12T04:37:46.899Z,1289.00
2023-05-12T04:38:46.914Z,1296.00
2023-05-12T04:39:46.955Z,1289.00
2023-05-12T04:40:46.956Z,1288.00
2023-05-12T04:41:46.966Z,1274.00
2023-05-12T04:42:46.969Z,1296.00
2023-05-12T04:44:46.971Z,1298.00
2023-05-12T04:45:46.996Z,1296.00
2023-05-12T04:46:46.976Z,1307.00
2023-05-12T04:47:46.999Z,1298.00
2023-05-12T04:48:46.971Z,1315.00
2023-05-12T04:49:46.965Z,1311.00
2023-05-12T04:50:46.963Z,1332.00
2023-05-12T04:51:46.950Z,1321.00
2023-05-12T04:52:46.952Z,1326.00
2023-05-12T04:53:46.919Z,1348.00
2023-05-12T04:54:46.920Z,1333.00
2023-05-12T04:55:46.919Z,1333.00
2023-05-12T04:56:46.942Z,1330.00
2023-05-12T04:57:46.914Z,1348.00
2023-05-12T04:58:46.892Z,1356.00
2023-05-12T04:59:46.901Z,1357.00
2023-05-12T05:00:46.901Z,1347.00
2023-05-12T05:01:47.117Z,1358.00
2023-05-12T05:02:46.950Z,1367.00
2023-05-12T05:03:46.956Z,1366.00
2023-05-12T05:04:46.879Z,1353.00
2023-05-12T05:05:46.866Z,1342.00
2023-05-12T05:06:46.864Z,1345.00
2023-05-12T05:07:46.858Z,1353.00
2023-05-12T05:08:46.834Z,1351.00
2023-05-12T05:09:46.822Z,1350.00
2023-05-12T05:10:46.825Z,1357.00
2023-05-12T05:11:46.822Z,1350.00
2023-05-12T05:12:46.841Z,1338.00
2023-05-12T05:13:46.798Z,1345.00
2023-05-12T05:14:46.810Z,1342.00
2023-05-12T05:15:46.867Z,1349.00
2023-05-12T05:16:46.815Z,1351.00
2023-05-12T05:17:46.811Z,1358.00
2023-05-12T05:18:47.007Z,1354.00
2023-05-12T05:19:57.205Z,1343.00
2023-05-12T05:20:56.080Z,1345.00
2023-05-12T05:21:47.751Z,1346.00
2023-05-12T05:22:46.726Z,1349.00
2023-05-12T05:23:46.716Z,1355.00
2023-05-12T05:24:46.721Z,1355.00
2023-05-12T05:25:46.697Z,1356.00
2023-05-12T05:26:46.694Z,1340.00
2023-05-12T05:27:47.008Z,1328.00
2023-05-12T05:28:46.693Z,1355.00
2023-05-12T05:29:46.686Z,1335.00
2023-05-12T05:30:46.664Z,1352.00
2023-05-12T05:31:46.739Z,1280.00
2023-05-12T05:32:47.044Z,1224.00
2023-05-12T05:33:46.666Z,1176.00
2023-05-12T05:34:46.641Z,1133.00
2023-05-12T05:35:46.685Z,1073.00
2023-05-12T05:36:46.630Z,1068.00
2023-05-12T05:37:46.648Z,1041.00
2023-05-12T05:38:46.622Z,1004.00
2023-05-12T05:39:46.600Z,909.00
2023-05-12T05:40:53.615Z,921.00
2023-05-12T05:41:47.611Z,855.00
2023-05-12T05:42:46.580Z,819.00
2023-05-12T05:43:46.612Z,794.00
2023-05-12T05:44:46.587Z,798.00
2023-05-12T05:45:46.559Z,897.00
2023-05-12T05:46:46.599Z,969.00
2023-05-12T05:47:47.038Z,1041.00
2023-05-12T05:48:46.542Z,1130.00
2023-05-12T05:49:46.568Z,1173.00
2023-05-12T05:50:46.542Z,1239.00
2023-05-12T05:51:46.536Z,1274.00
2023-05-12T05:52:46.534Z,1326.00
2023-05-12T05:53:46.515Z,1405.00
2023-05-12T05:54:46.498Z,1434.00
2023-05-12T05:55:46.483Z,1471.00
2023-05-12T05:56:46.561Z,1505.00
2023-05-12T05:57:46.595Z,1558.00
2023-05-12T05:58:46.608Z,1610.00
2023-05-12T05:59:46.661Z,1649.00
2023-05-12T06:00:46.707Z,1685.00
2023-05-12T06:01:46.728Z,1734.00
2023-05-12T06:02:47.055Z,1779.00
2023-05-12T06:03:46.868Z,1832.00
2023-05-12T06:04:46.761Z,1897.00
2023-05-12T06:05:46.797Z,1944.00
2023-05-12T06:06:46.782Z,1975.00
2023-05-12T06:07:46.784Z,1973.00
2023-05-12T06:08:46.801Z,2027.00
2023-05-12T06:09:46.801Z,2016.00
2023-05-12T06:10:46.793Z,2058.00
2023-05-12T06:11:46.786Z,2081.00
2023-05-12T06:12:46.811Z,2089.00
2023-05-12T06:13:46.805Z,2104.00
2023-05-12T06:14:46.778Z,2124.00
2023-05-12T06:15:46.792Z,2119.00
2023-05-12T06:16:46.954Z,2159.00
2023-05-12T06:17:46.831Z,2174.00
2023-05-12T06:18:46.848Z,2156.00
2023-05-12T06:19:46.807Z,2181.00
2023-05-12T06:20:46.792Z,2191.00
2023-05-12T06:21:46.814Z,2210.00
2023-05-12T06:22:46.836Z,2193.00
2023-05-12T06:23:46.879Z,2204.00
2023-05-12T06:24:46.868Z,2105.00
2023-05-12T06:25:46.883Z,2063.00
2023-05-12T06:26:46.907Z,2078.00
2023-05-12T06:27:46.910Z,2115.00
2023-05-12T06:28:46.937Z,2113.00
2023-05-12T06:29:46.962Z,2143.00
2023-05-12T06:30:46.997Z,2170.00
2023-05-12T06:31:47.127Z,2167.00
2023-05-12T06:32:47.686Z,2136.00
2023-05-12T06:33:47.213Z,2077.00
2023-05-12T06:34:47.285Z,1980.00
2023-05-12T06:35:47.277Z,1958.00
2023-05-12T06:36:47.312Z,1900.00
2023-05-12T06:37:47.376Z,1825.00
2023-05-12T06:38:47.407Z,1788.00
2023-05-12T06:39:47.456Z,1834.00
2023-05-12T06:40:47.475Z,1853.00
2023-05-12T06:41:47.523Z,1936.00
2023-05-12T06:42:47.591Z,2015.00
2023-05-12T06:43:47.647Z,2075.00
2023-05-12T06:44:47.800Z,2144.00
2023-05-12T06:45:47.764Z,2208.00
2023-05-12T06:46:47.900Z,2249.00
2023-05-12T06:47:48.088Z,2264.00
2023-05-12T06:48:47.922Z,2271.00
2023-05-12T06:49:47.947Z,2273.00
2023-05-12T06:50:48.014Z,2264.00
2023-05-12T06:51:48.054Z,2291.00
2023-05-12T06:52:48.093Z,2286.00
2023-05-12T06:53:48.135Z,2276.00
2023-05-12T06:54:48.152Z,2139.00
2023-05-12T06:55:48.188Z,1908.00
2023-05-12T06:56:48.252Z,1787.00
2023-05-12T06:57:48.524Z,1726.00
2023-05-12T06:58:48.328Z,1715.00
2023-05-12T06:59:48.375Z,1604.00
2023-05-12T07:00:48.405Z,1534.00
2023-05-12T07:01:48.491Z,1511.00
2023-05-12T07:02:48.525Z,1535.00
2023-05-12T07:03:48.488Z,1486.00
2023-05-12T07:04:48.526Z,1396.00
2023-05-12T07:05:48.546Z,1404.00
2023-05-12T07:06:48.570Z,1423.00
2023-05-12T07:07:48.584Z,1469.00
2023-05-12T07:08:48.588Z,1439.00
2023-05-12T07:09:48.611Z,1385.00
2023-05-12T07:10:48.652Z,1448.00
2023-05-12T07:11:48.656Z,1497.00
2023-05-12T07:12:48.708Z,1506.00
2023-05-12T07:13:48.700Z,1540.00
2023-05-12T07:14:48.740Z,1537.00
2023-05-12T07:15:48.753Z,1590.00
2023-05-12T07:16:48.767Z,1601.00
2023-05-12T07:17:50.157Z,1633.00
2023-05-12T07:18:48.837Z,1604.00
2023-05-12T07:19:48.867Z,1461.00
2023-05-12T07:20:48.877Z,1546.00
2023-05-12T07:21:48.892Z,1535.00
2023-05-12T07:22:48.897Z,1610.00
2023-05-12T07:23:48.934Z,1534.00
2023-05-12T07:24:48.964Z,1475.00
2023-05-12T07:25:48.958Z,1336.00
2023-05-12T07:26:48.977Z,1125.00
2023-05-12T07:27:49.028Z,981.00
2023-05-12T07:28:49.059Z,898.00
2023-05-12T07:29:49.100Z,853.00
2023-05-12T07:30:49.158Z,735.00
2023-05-12T07:31:49.283Z,605.00
2023-05-12T07:32:49.290Z,569.00
2023-05-12T07:33:49.542Z,575.00
2023-05-12T07:34:49.275Z,612.00
2023-05-12T07:35:49.293Z,637.00
2023-05-12T07:36:49.333Z,665.00
2023-05-12T07:37:49.351Z,751.00
2023-05-12T07:38:49.545Z,860.00
2023-05-12T07:39:49.460Z,971.00
2023-05-12T07:40:49.537Z,1097.00
2023-05-12T07:41:49.573Z,1222.00
2023-05-12T07:42:50.057Z,1297.00
2023-05-12T07:43:49.678Z,1343.00
2023-05-12T07:44:49.731Z,1373.00
2023-05-12T07:45:49.740Z,1458.00
2023-05-12T07:46:49.887Z,1491.00
2023-05-12T07:47:49.835Z,1524.00
2023-05-12T07:48:49.863Z,1570.00
2023-05-12T07:49:49.865Z,1557.00
2023-05-12T07:50:49.904Z,1556.00
2023-05-12T07:51:49.936Z,1575.00
2023-05-12T07:52:50.092Z,1433.00
2023-05-12T07:53:49.979Z,1225.00
2023-05-12T07:54:50.007Z,1287.00
2023-05-12T07:55:50.024Z,1205.00
2023-05-12T07:56:50.055Z,1100.00
2023-05-12T07:57:50.585Z,1223.00
2023-05-12T07:58:50.579Z,1271.00
2023-05-12T07:59:50.151Z,1324.00
2023-05-12T08:00:50.148Z,1283.00
2023-05-12T08:01:50.193Z,1300.00
2023-05-12T08:02:50.674Z,1179.00
2023-05-12T08:03:50.688Z,1052.00
2023-05-12T08:04:50.264Z,1143.00
2023-05-12T08:05:50.304Z,1207.00
2023-05-12T08:06:50.335Z,1072.00
2023-05-12T08:07:50.349Z,951.00
2023-05-12T08:08:50.424Z,836.00
2023-05-12T08:09:50.418Z,880.00
2023-05-12T08:10:50.439Z,817.00
2023-05-12T08:11:51.625Z,860.00
2023-05-12T08:12:50.496Z,1018.00
2023-05-12T08:13:50.579Z,963.00
2023-05-12T08:14:50.879Z,930.00
2023-05-12T08:15:50.596Z,1017.00
2023-05-12T08:16:50.695Z,989.00
2023-05-12T08:17:50.701Z,981.00
2023-05-12T08:18:50.696Z,1044.00
2023-05-12T08:19:50.713Z,1059.00
2023-05-12T08:20:50.732Z,994.00
2023-05-12T08:21:50.771Z,861.00
2023-05-12T08:22:50.813Z,650.00
2023-05-12T08:23:51.078Z,582.00
2023-05-12T08:24:50.899Z,575.00
2023-05-12T08:25:50.941Z,627.00
2023-05-12T08:26:50.989Z,691.00
2023-05-12T08:27:51.045Z,808.00
2023-05-12T08:28:51.127Z,912.00
2023-05-12T08:29:51.121Z,1108.00
2023-05-12T08:30:51.173Z,1294.00
2023-05-12T08:31:51.196Z,1389.00
2023-05-12T08:32:51.227Z,1519.00
2023-05-12T08:33:59.420Z,1571.00
2023-05-12T08:34:52.361Z,1573.00
2023-05-12T08:35:51.221Z,1571.00
2023-05-12T08:36:51.197Z,1575.00
2023-05-12T08:37:51.239Z,1640.00
2023-05-12T08:38:51.328Z,1749.00
2023-05-12T08:39:51.334Z,1728.00
2023-05-12T08:40:51.332Z,1785.00
2023-05-12T08:41:51.360Z,1827.00
2023-05-12T08:42:51.386Z,1866.00
2023-05-12T08:43:51.574Z,1907.00
2023-05-12T08:44:51.396Z,1920.00
2023-05-12T08:45:51.393Z,1938.00
2023-05-12T08:46:51.468Z,1962.00
2023-05-12T08:47:51.495Z,1957.00
2023-05-12T08:48:51.409Z,1964.00
2023-05-12T08:49:52.554Z,1987.00
2023-05-12T08:50:51.425Z,1973.00
2023-05-12T08:51:57.726Z,1978.00
2023-05-12T08:52:52.395Z,1979.00
2023-05-12T08:53:51.395Z,1983.00
2023-05-12T08:54:56.101Z,1973.00
2023-05-12T08:57:08.992Z,1979.00
2023-05-12T08:57:51.407Z,1981.00
2023-05-12T08:58:51.592Z,1988.00
2023-05-12T08:59:51.361Z,2008.00
2023-05-12T09:00:51.348Z,2045.00
2023-05-12T09:01:51.423Z,2082.00
2023-05-12T09:02:53.848Z,2044.00
2023-05-12T09:03:51.604Z,2045.00
2023-05-12T09:04:51.460Z,2045.00
2023-05-12T09:05:51.331Z,2062.00
2023-05-12T09:06:52.558Z,2089.00
2023-05-12T09:07:51.294Z,2047.00
2023-05-12T09:08:51.589Z,2060.00
2023-05-12T09:09:51.268Z,2083.00
2023-05-12T09:10:51.268Z,2120.00
2023-05-12T09:11:51.279Z,2103.00
2023-05-12T09:12:51.249Z,2119.00
2023-05-12T09:13:51.604Z,2108.00
2023-05-12T09:14:51.237Z,2072.00
2023-05-12T09:15:51.245Z,2119.00
2023-05-12T09:16:51.296Z,2129.00
2023-05-12T09:17:51.243Z,2093.00
2023-05-12T09:18:51.233Z,2106.00
2023-05-12T09:19:51.213Z,2136.00
2023-05-12T09:20:51.218Z,2139.00
2023-05-12T09:21:51.186Z,2157.00
2023-05-12T09:22:51.409Z,2179.00
2023-05-12T09:23:51.583Z,2154.00
2023-05-12T09:24:51.175Z,2133.00
2023-05-12T09:25:51.180Z,2145.00
2023-05-12T09:26:51.182Z,2114.00
2023-05-12T09:27:51.154Z,2130.00
2023-05-12T09:28:51.158Z,2111.00
2023-05-12T09:29:58.466Z,2125.00
2023-05-12T09:30:52.130Z,1899.00
2023-05-12T09:31:51.171Z,1731.00
2023-05-12T09:32:51.124Z,1809.00
2023-05-12T09:33:51.634Z,1878.00
2023-05-12T09:34:51.106Z,1901.00
2023-05-12T09:35:51.102Z,1924.00
2023-05-12T09:36:51.120Z,1951.00
2023-05-12T09:37:51.199Z,1942.00
2023-05-12T09:38:51.151Z,1977.00
2023-05-12T09:39:51.084Z,1970.00
2023-05-12T09:40:51.077Z,1976.00
2023-05-12T09:41:51.056Z,1909.00
2023-05-12T09:42:51.095Z,1688.00
2023-05-12T09:43:51.598Z,1523.00
2023-05-12T09:44:51.207Z,1429.00
2023-05-12T09:45:51.306Z,1249.00
2023-05-12T09:46:51.390Z,1147.00
2023-05-12T09:47:51.453Z,1065.00
2023-05-12T09:48:51.614Z,995.00
2023-05-12T09:49:51.497Z,947.00
2023-05-12T09:50:51.565Z,919.00
2023-05-12T09:51:51.615Z,870.00
2023-05-12T09:52:51.687Z,841.00
2023-05-12T09:53:52.094Z,767.00
2023-05-12T09:54:51.789Z,802.00
2023-05-12T09:55:51.881Z,833.00
2023-05-12T09:56:51.899Z,1027.00
2023-05-12T09:57:51.969Z,1203.00
2023-05-12T09:58:52.022Z,1305.00
2023-05-12T09:59:52.088Z,1348.00
2023-05-12T10:01:13.554Z,1385.00
2023-05-12T10:01:53.163Z,1386.00
2023-05-12T10:02:52.160Z,1384.00
2023-05-12T10:03:52.109Z,1384.00
2023-05-12T10:04:52.145Z,1392.00
2023-05-12T10:05:52.124Z,1377.00
2023-05-12T10:06:52.092Z,1416.00
2023-05-12T10:07:52.077Z,1417.00
2023-05-12T10:08:52.115Z,1404.00
2023-05-12T10:09:52.083Z,1409.00
2023-05-12T10:10:52.123Z,1402.00
2023-05-12T10:11:53.697Z,1415.00
2023-05-12T10:12:52.226Z,1431.00
2023-05-12T10:13:52.615Z,1446.00
2023-05-12T10:14:52.341Z,1438.00
2023-05-12T10:15:52.381Z,1460.00
2023-05-12T10:16:52.462Z,1444.00
2023-05-12T10:17:53.911Z,1449.00
2023-05-12T10:18:52.546Z,1445.00
2023-05-12T10:19:52.572Z,1459.00
2023-05-12T10:20:52.651Z,1462.00
2023-05-12T10:21:52.682Z,1469.00
2023-05-12T10:22:52.754Z,1474.00
2023-05-12T10:23:53.149Z,1464.00
2023-05-12T10:24:52.825Z,1497.00
2023-05-12T10:25:53.003Z,1474.00
2023-05-12T10:26:52.956Z,1458.00
2023-05-12T10:27:52.981Z,1448.00
2023-05-12T10:28:53.031Z,1454.00
2023-05-12T10:29:53.718Z,1467.00
2023-05-12T10:30:53.179Z,1465.00
2023-05-12T10:31:53.215Z,1451.00
2023-05-12T10:32:53.279Z,1425.00
2023-05-12T10:33:53.285Z,1421.00
2023-05-12T10:34:53.312Z,1426.00
2023-05-12T10:35:53.384Z,1425.00
2023-05-12T10:36:53.421Z,1422.00
2023-05-12T10:37:53.453Z,1419.00
2023-05-12T10:38:53.531Z,1422.00
2023-05-12T10:39:53.562Z,1433.00
2023-05-12T10:40:53.602Z,1434.00
2023-05-12T10:41:53.693Z,1409.00
2023-05-12T10:42:53.749Z,1418.00
2023-05-12T10:43:53.748Z,1414.00
2023-05-12T10:44:53.827Z,1431.00
2023-05-12T10:45:53.872Z,1433.00
2023-05-12T10:46:53.926Z,1431.00
2023-05-12T10:47:54.006Z,1412.00
2023-05-12T10:48:54.030Z,1427.00
2023-05-12T10:49:54.065Z,1425.00
2023-05-12T10:50:54.118Z,1382.00
2023-05-12T10:51:54.160Z,1379.00
2023-05-12T10:52:54.202Z,1365.00
2023-05-12T10:53:55.034Z,1353.00
2023-05-12T10:54:54.286Z,1380.00
2023-05-12T10:55:54.479Z,1373.00
2023-05-12T10:56:54.534Z,1367.00
2023-05-12T10:57:54.849Z,1357.00
2023-05-12T10:58:54.824Z,1386.00
2023-05-12T10:59:54.654Z,1378.00
2023-05-12T11:00:55.562Z,1358.00
2023-05-12T11:01:54.998Z,1332.00
2023-05-12T11:02:59.272Z,1352.00
2023-05-12T11:03:56.204Z,1354.00
2023-05-12T11:04:54.820Z,1356.00
2023-05-12T11:05:55.555Z,1361.00
2023-05-12T11:06:54.781Z,1370.00
2023-05-12T11:07:54.824Z,1193.00
2023-05-12T11:08:55.146Z,989.00
2023-05-12T11:09:59.253Z,1041.00
2023-05-12T11:10:55.723Z,1024.00
2023-05-12T11:11:54.680Z,1054.00
2023-05-12T11:12:54.591Z,1078.00
2023-05-12T11:13:54.591Z,1124.00
2023-05-12T11:14:54.650Z,1451.00
2023-05-12T11:15:54.612Z,1298.00
2023-05-12T11:16:54.591Z,1304.00
2023-05-12T11:17:54.607Z,1330.00
2023-05-12T11:18:54.625Z,1376.00
2023-05-12T11:19:54.685Z,1450.00
2023-05-12T11:20:54.540Z,1466.00
2023-05-12T11:21:54.555Z,1423.00
2023-05-12T11:22:54.604Z,1457.00
2023-05-12T11:23:54.643Z,1483.00
2023-05-12T11:24:55.186Z,1509.00
2023-05-12T11:25:54.792Z,1593.00
2023-05-12T11:26:54.791Z,1672.00
2023-05-12T11:27:54.824Z,1703.00
2023-05-12T11:28:54.878Z,1714.00
2023-05-12T11:29:54.934Z,1741.00
2023-05-12T11:30:55.818Z,1790.00
2023-05-12T11:31:55.110Z,1825.00
2023-05-12T11:32:55.124Z,1852.00
2023-05-12T11:34:08.249Z,1867.00
2023-05-12T11:34:56.201Z,1869.00
2023-05-12T11:35:55.146Z,1877.00
2023-05-12T11:36:55.134Z,1895.00
2023-05-12T11:37:55.142Z,1924.00
2023-05-12T11:38:55.130Z,1973.00
2023-05-12T11:39:55.111Z,2000.00
2023-05-12T11:40:55.096Z,2000.00
2023-05-12T11:42:05.553Z,2007.00
2023-05-12T11:42:56.180Z,2008.00
2023-05-12T11:43:55.090Z,2013.00
2023-05-12T11:44:55.078Z,2020.00
2023-05-12T11:45:55.092Z,2027.00
2023-05-12T11:46:55.059Z,2058.00
2023-05-12T11:47:55.788Z,2031.00
2023-05-12T11:48:55.056Z,2027.00
2023-05-12T11:49:55.050Z,1997.00
2023-05-12T11:50:55.039Z,1958.00
2023-05-12T11:51:55.064Z,1952.00
2023-05-12T11:52:55.110Z,1930.00
2023-05-12T11:53:55.171Z,1926.00
2023-05-12T11:54:55.242Z,1889.00
2023-05-12T11:55:55.280Z,1872.00
2023-05-12T11:56:55.320Z,1838.00
2023-05-12T11:57:55.357Z,1782.00
2023-05-12T11:58:55.385Z,1794.00
2023-05-12T11:59:55.431Z,1776.00
2023-05-12T12:00:55.486Z,1710.00
2023-05-12T12:01:55.557Z,1674.00
2023-05-12T12:02:55.660Z,1625.00
2023-05-12T12:03:55.762Z,1651.00
2023-05-12T12:04:55.667Z,1612.00
2023-05-12T12:05:55.663Z,1589.00
2023-05-12T12:06:55.717Z,1587.00
2023-05-12T12:07:55.745Z,1539.00
2023-05-12T12:08:55.801Z,1491.00
2023-05-12T12:09:56.158Z,1490.00